createdAt,value
2018-09-17T00:07:00.589Z,97179.25
2018-09-17T03:26:21.478Z,97174.63
2018-09-17T03:34:48.339Z,97176.19
2018-09-17T06:04:57.989Z,97236.00
2018-09-17T06:08:43.574Z,97233.00
2018-09-17T06:12:15.724Z,97241.84
2018-09-17T06:15:40.864Z,97241.55
2018-09-17T06:19:04.884Z,97250.23
2018-09-17T06:22:28.930Z,97244.27
2018-09-17T06:25:52.974Z,97250.02
2018-09-17T06:29:17.056Z,97251.81
2018-09-17T06:32:41.112Z,97255.09
2018-09-17T06:36:05.286Z,97250.96
2018-09-17T06:39:29.350Z,97251.53
2018-09-17T06:42:53.464Z,97247.70
2018-09-17T06:46:17.479Z,97250.22
2018-09-17T06:49:41.729Z,97244.73
2018-09-17T06:53:05.821Z,97249.09
2018-09-17T06:56:29.969Z,97241.47
2018-09-17T06:59:54.100Z,97239.26
2018-09-17T07:03:18.225Z,97247.46
2018-09-17T07:06:42.462Z,97242.34
2018-09-17T07:10:07.441Z,97235.41
2018-09-17T07:13:31.683Z,97232.20
2018-09-17T07:16:56.181Z,97234.63
2018-09-17T07:20:20.264Z,97240.55
2018-09-17T07:23:44.310Z,97235.09
2018-09-17T07:27:08.432Z,97239.57
2018-09-17T07:30:33.563Z,97232.58
2018-09-17T07:33:57.773Z,97230.20
2018-09-17T07:37:21.863Z,97230.39
2018-09-17T07:40:45.975Z,97229.55
2018-09-17T07:44:10.061Z,97229.19
2018-09-17T07:47:34.024Z,97224.18
2018-09-17T07:50:59.215Z,97221.66
2018-09-17T07:54:25.244Z,97223.99
2018-09-17T07:57:50.726Z,97226.70
2018-09-17T08:01:16.147Z,97215.53
2018-09-17T08:04:40.978Z,97215.33
2018-09-17T08:08:06.383Z,97215.34
2018-09-17T08:11:31.357Z,97207.44
2018-09-17T08:14:56.007Z,97205.14
2018-09-17T08:18:25.543Z,97197.20
2018-09-17T08:21:52.161Z,97198.95
2018-09-17T08:25:17.465Z,97189.31
2018-09-17T08:28:41.973Z,97189.80
2018-09-17T08:32:07.997Z,97177.55
2018-09-17T08:35:33.285Z,97166.59
2018-09-17T08:39:03.207Z,97170.82
2018-09-17T08:42:28.007Z,97171.77
2018-09-17T08:45:53.071Z,97168.20
2018-09-17T08:49:17.072Z,97164.95
2018-09-17T08:52:41.099Z,97160.16
2018-09-17T08:56:10.278Z,97160.53
2018-09-17T08:59:39.551Z,97157.28
2018-09-17T09:04:06.748Z,97157.77
2018-09-17T09:07:31.433Z,97154.75
2018-09-17T09:11:00.755Z,97146.61
2018-09-17T09:14:29.927Z,97146.48
2018-09-17T09:17:53.994Z,97143.70
2018-09-17T09:21:18.181Z,97146.78
2018-09-17T09:24:42.153Z,97146.97
2018-09-17T09:28:06.135Z,97142.91
2018-09-17T09:31:30.068Z,97139.80
2018-09-17T09:34:54.103Z,97136.16
2018-09-17T09:38:18.128Z,97133.52
2018-09-17T09:41:42.135Z,97122.83
2018-09-17T09:45:06.279Z,97132.82
2018-09-17T09:48:30.259Z,97129.48
2018-09-17T09:51:54.249Z,97126.66
2018-09-17T09:55:18.263Z,97122.91
2018-09-17T09:58:42.363Z,97113.80
2018-09-17T10:02:12.061Z,97113.94
2018-09-17T10:05:36.053Z,97116.17
2018-09-17T10:09:05.341Z,97115.66
2018-09-17T10:12:34.835Z,97108.47
2018-09-17T10:15:59.072Z,97104.45
2018-09-17T10:19:25.248Z,97099.03
2018-09-17T10:22:50.579Z,97099.59
2018-09-17T10:26:14.721Z,97089.61
2018-09-17T10:29:38.735Z,97090.09
2018-09-17T10:33:02.809Z,97086.14
2018-09-17T10:36:26.844Z,97084.41
2018-09-17T10:39:50.887Z,97071.34
2018-09-17T10:43:14.877Z,97061.83
2018-09-17T10:46:39.109Z,97063.83
2018-09-17T10:50:03.195Z,97058.83
2018-09-17T10:53:27.267Z,97058.55
2018-09-17T10:56:51.569Z,97051.70
2018-09-17T11:00:15.661Z,97050.69
2018-09-17T11:03:39.663Z,97056.53
2018-09-17T11:07:03.659Z,97046.48
2018-09-17T11:10:27.645Z,97048.98
2018-09-17T11:13:51.717Z,97049.84
2018-09-17T11:17:16.297Z,97050.38
2018-09-17T11:20:40.330Z,97044.53
2018-09-17T11:24:04.480Z,97043.27
2018-09-17T11:27:28.725Z,97041.83
2018-09-17T11:30:52.780Z,97038.11
2018-09-17T11:34:16.781Z,97038.73
2018-09-17T11:37:40.845Z,97034.66
2018-09-17T11:41:04.886Z,97032.62
2018-09-17T11:44:28.899Z,97030.94
2018-09-17T11:47:52.939Z,97027.47
2018-09-17T11:51:17.019Z,97032.53
2018-09-17T11:54:41.059Z,97027.28
2018-09-17T11:58:05.017Z,97024.17
2018-09-17T12:01:35.088Z,97016.97
2018-09-17T12:05:03.319Z,97009.45
2018-09-17T12:08:28.258Z,97011.53
2018-09-17T12:11:52.358Z,97007.13
2018-09-17T12:15:17.636Z,97008.83
2018-09-17T12:18:42.827Z,97007.64
2018-09-17T12:22:08.295Z,97003.95
2018-09-17T12:25:32.407Z,97009.94
2018-09-17T12:28:57.613Z,97005.77
2018-09-17T12:32:22.333Z,96987.89
2018-09-17T12:35:46.405Z,96993.36
2018-09-17T12:39:12.088Z,96993.31
2018-09-17T12:42:36.102Z,96983.88
2018-09-17T12:46:00.236Z,96990.78
2018-09-17T12:49:24.897Z,96986.95
2018-09-17T12:52:48.905Z,96985.41
2018-09-17T12:56:12.914Z,96982.84
2018-09-17T12:59:36.979Z,96978.27
2018-09-17T13:03:00.936Z,96968.63
2018-09-17T13:06:25.205Z,96959.05
2018-09-17T13:09:49.258Z,96956.17
2018-09-17T13:13:13.298Z,96956.72
2018-09-17T13:16:39.061Z,96955.16
2018-09-17T13:20:03.174Z,96952.59
2018-09-17T13:23:27.122Z,96955.34
2018-09-17T13:26:51.092Z,96947.03
2018-09-17T13:30:15.224Z,96947.28
2018-09-17T13:33:39.180Z,96937.80
2018-09-17T13:37:03.176Z,96943.05
2018-09-17T13:40:27.155Z,96931.33
2018-09-17T13:43:51.226Z,96929.23
2018-09-17T13:47:15.250Z,96922.92
2018-09-17T13:50:39.293Z,96928.30
2018-09-17T13:54:03.314Z,96916.30
2018-09-17T13:57:29.626Z,96910.08
2018-09-17T14:00:54.533Z,96909.88
2018-09-17T14:04:20.146Z,96907.00
2018-09-17T14:07:47.535Z,96903.95
2018-09-17T14:11:14.103Z,96897.12
2018-09-17T14:14:39.364Z,96895.89
2018-09-17T14:18:05.354Z,96889.69
2018-09-17T14:22:08.879Z,96897.38
2018-09-17T14:25:34.841Z,96888.64
2018-09-17T14:32:43.610Z,96877.13
2018-09-17T14:36:09.374Z,96872.42
2018-09-17T14:39:34.611Z,96870.19
2018-09-17T14:43:00.072Z,96868.89
2018-09-17T14:46:24.809Z,96862.14
2018-09-17T14:49:50.072Z,96856.48
2018-09-17T14:53:14.774Z,96855.09
2018-09-17T14:56:39.692Z,96851.56
2018-09-17T15:00:04.358Z,96848.13
2018-09-17T15:03:29.872Z,96852.23
2018-09-17T15:06:54.489Z,96843.45
2018-09-17T15:10:18.952Z,96842.95
2018-09-17T15:13:43.646Z,96839.30
2018-09-17T15:17:07.712Z,96831.28
2018-09-17T15:20:31.742Z,96827.75
2018-09-17T15:23:55.796Z,96824.77
2018-09-17T15:27:19.912Z,96822.76
2018-09-17T15:30:43.971Z,96812.34
2018-09-17T15:34:08.069Z,96806.89
2018-09-17T15:37:32.029Z,96807.71
2018-09-17T15:40:56.161Z,96802.91
2018-09-17T15:44:20.044Z,96797.94
2018-09-17T15:47:44.322Z,96800.25
2018-09-17T15:51:08.727Z,96790.44
2018-09-17T15:54:32.712Z,96788.79
2018-09-17T15:57:56.856Z,96786.89
2018-09-17T16:01:20.908Z,96787.47
2018-09-17T16:04:45.567Z,96792.02
2018-09-17T16:08:10.368Z,96788.14
2018-09-17T16:11:35.359Z,96790.92
2018-09-17T16:15:00.174Z,96790.55
2018-09-17T16:18:24.988Z,96786.33
2018-09-17T16:21:50.012Z,96783.31
2018-09-17T16:25:14.785Z,96789.97
2018-09-17T16:28:39.628Z,96795.12
2018-09-17T16:32:04.462Z,96783.16
2018-09-17T16:35:29.347Z,96788.52
2018-09-17T16:38:54.575Z,96788.98
2018-09-17T16:42:19.319Z,96791.80
2018-09-17T16:45:44.685Z,96788.80
2018-09-17T16:49:09.521Z,96794.35
2018-09-17T16:52:34.401Z,96793.38
2018-09-17T16:56:00.523Z,96789.45
2018-09-17T16:59:26.727Z,96799.25
2018-09-17T17:02:51.652Z,96792.39
2018-09-17T17:06:16.911Z,96788.17
2018-09-17T17:09:43.019Z,96794.44
2018-09-17T17:13:10.341Z,96789.91
2018-09-17T17:16:36.390Z,96794.58
2018-09-17T17:20:03.670Z,96792.98
2018-09-17T17:23:29.930Z,96790.05
2018-09-17T17:26:55.970Z,96792.20
2018-09-17T17:30:22.601Z,96787.99
2018-09-17T17:33:47.775Z,96787.02
2018-09-17T17:37:13.259Z,96789.85
2018-09-17T17:40:38.442Z,96789.21
2018-09-17T17:44:03.782Z,96789.59
2018-09-17T17:47:29.687Z,96786.64
2018-09-17T17:50:56.229Z,96787.70
2018-09-17T17:54:21.457Z,96787.48
2018-09-17T17:57:47.169Z,96783.52
2018-09-17T18:01:12.566Z,96791.13
2018-09-17T18:04:37.715Z,96791.30
2018-09-17T18:08:03.073Z,96793.03
2018-09-17T18:11:27.950Z,96791.70
2018-09-17T18:14:52.957Z,96795.52
2018-09-17T18:18:17.875Z,96803.58
2018-09-17T18:21:42.857Z,96794.66
2018-09-17T18:25:08.154Z,96795.89
2018-09-17T18:28:33.466Z,96792.12
2018-09-17T18:31:59.240Z,96801.17
2018-09-17T18:35:24.305Z,96805.53
2018-09-17T18:38:52.730Z,96801.17
2018-09-17T18:42:17.718Z,96812.66
2018-09-17T18:45:42.848Z,96807.33
2018-09-17T18:49:08.055Z,96812.60
2018-09-17T18:52:33.175Z,96809.48
2018-09-17T18:55:58.618Z,96810.38
2018-09-17T18:59:23.710Z,96811.79
2018-09-17T19:02:48.995Z,96809.84
2018-09-17T19:06:15.153Z,96814.48
2018-09-17T19:09:45.171Z,96810.80
2018-09-17T19:13:10.175Z,96814.25
2018-09-17T19:16:40.285Z,96814.69
2018-09-17T19:20:06.572Z,96818.06
2018-09-17T19:23:36.543Z,96822.02
2018-09-17T19:27:01.495Z,96817.94
2018-09-17T19:30:26.493Z,96812.11
2018-09-17T19:33:51.499Z,96814.00
2018-09-17T19:37:21.459Z,96817.73
2018-09-17T19:40:46.580Z,96818.82
2018-09-17T19:44:11.660Z,96818.90
2018-09-17T19:47:36.564Z,96817.46
2018-09-17T19:51:06.496Z,96816.10
2018-09-17T19:54:31.372Z,96821.27
2018-09-17T19:58:01.423Z,96814.52
2018-09-17T20:01:26.558Z,96816.59
2018-09-17T20:04:56.832Z,96809.48
2018-09-17T20:08:21.842Z,96818.20
2018-09-17T20:11:46.885Z,96820.31
2018-09-17T20:15:11.873Z,96818.80
2018-09-17T20:18:37.080Z,96817.72
2018-09-17T20:22:01.973Z,96811.34
2018-09-17T20:25:27.645Z,96817.73
2018-09-17T20:28:52.927Z,96815.78
2018-09-17T20:32:19.031Z,96809.72
2018-09-17T20:35:44.325Z,96811.14
2018-09-17T20:39:10.595Z,96815.48
2018-09-17T20:42:35.665Z,96811.95
2018-09-17T20:46:05.590Z,96814.98
2018-09-17T20:49:30.907Z,96814.58
2018-09-17T20:52:56.156Z,96817.93
2018-09-17T20:56:26.118Z,96821.84
2018-09-17T20:59:57.529Z,96811.47
2018-09-17T21:03:22.967Z,96812.02
2018-09-17T21:07:00.654Z,96818.39
2018-09-17T21:10:29.401Z,96818.59
2018-09-17T21:13:54.527Z,96813.29
2018-09-17T21:17:22.196Z,96813.77
2018-09-17T21:20:53.268Z,96812.21
2018-09-17T21:24:18.295Z,96803.97
2018-09-17T21:27:52.043Z,96810.68
2018-09-17T21:31:17.100Z,96814.36
2018-09-17T21:34:45.708Z,96818.27
2018-09-17T21:38:11.644Z,96808.97
2018-09-17T21:41:37.022Z,96806.45
2018-09-17T21:45:03.330Z,96804.69
2018-09-17T21:48:28.677Z,96806.96
2018-09-17T21:51:57.521Z,96804.93
2018-09-17T21:55:23.218Z,96807.42
2018-09-17T21:58:50.009Z,96800.88
2018-09-17T22:02:16.985Z,96795.50
2018-09-17T22:05:43.337Z,96800.38
2018-09-17T22:09:10.072Z,96796.34
2018-09-17T22:12:36.054Z,96793.59
2018-09-17T22:16:01.645Z,96801.36
2018-09-17T22:19:27.262Z,96798.73
2018-09-17T22:47:31.214Z,96795.64
2018-09-17T22:51:24.350Z,96783.37
2018-09-17T23:00:09.282Z,96793.27
